createdAt,value
2018-03-30T00:00:54.825Z,2.17
2018-03-30T00:01:54.851Z,2.20
2018-03-30T00:02:54.878Z,2.14
2018-03-30T00:03:54.903Z,2.17
2018-03-30T00:04:54.929Z,2.12
2018-03-30T00:05:54.955Z,2.17
2018-03-30T00:06:54.981Z,2.14
2018-03-30T00:07:55.006Z,2.18
2018-03-30T00:08:55.033Z,2.14
2018-03-30T00:09:55.059Z,2.16
2018-03-30T00:10:55.084Z,2.12
2018-03-30T00:11:55.110Z,2.09
2018-03-30T00:12:55.135Z,2.10
2018-03-30T00:13:55.161Z,2.17
2018-03-30T00:14:55.192Z,2.16
2018-03-30T00:15:55.214Z,2.14
2018-03-30T00:16:55.238Z,2.12
2018-03-30T00:17:55.265Z,2.03
2018-03-30T00:18:55.292Z,2.00
2018-03-30T00:19:55.318Z,2.02
2018-03-30T00:20:55.343Z,1.88
2018-03-30T00:21:55.368Z,1.98
2018-03-30T00:22:55.395Z,1.87
2018-03-30T00:23:55.420Z,1.90
2018-03-30T00:24:55.445Z,1.88
2018-03-30T00:25:55.471Z,1.93
2018-03-30T00:26:55.545Z,1.87
2018-03-30T00:27:55.524Z,1.90
2018-03-30T00:28:55.549Z,1.91
2018-03-30T00:29:55.579Z,1.95
2018-03-30T00:30:55.601Z,1.84
2018-03-30T00:31:55.627Z,1.90
2018-03-30T00:32:55.654Z,1.88
2018-03-30T00:33:55.678Z,1.95
2018-03-30T00:34:55.704Z,1.88
2018-03-30T00:35:55.730Z,1.88
2018-03-30T00:36:55.753Z,1.90
2018-03-30T00:37:55.779Z,1.93
2018-03-30T00:38:55.806Z,1.98
2018-03-30T00:39:55.831Z,1.91
2018-03-30T00:40:55.856Z,1.98
2018-03-30T00:41:55.883Z,1.83
2018-03-30T00:42:55.907Z,1.86
2018-03-30T00:43:55.935Z,1.84
2018-03-30T00:44:55.960Z,1.93
2018-03-30T00:45:55.986Z,1.83
2018-03-30T00:46:56.016Z,1.81
2018-03-30T00:47:56.038Z,1.87
2018-03-30T00:48:56.064Z,1.83
2018-03-30T00:49:56.088Z,1.79
2018-03-30T00:50:56.114Z,1.80
2018-03-30T00:51:56.140Z,1.76
2018-03-30T00:52:56.164Z,1.80
2018-03-30T00:53:56.191Z,1.69
2018-03-30T00:54:56.217Z,1.79
2018-03-30T00:55:56.242Z,1.80
2018-03-30T00:56:56.272Z,1.80
2018-03-30T00:57:56.294Z,1.70
2018-03-30T00:58:56.319Z,1.68
2018-03-30T00:59:56.345Z,1.60
2018-03-30T01:00:56.369Z,1.68
2018-03-30T01:01:56.395Z,1.65
2018-03-30T01:02:56.422Z,1.63
2018-03-30T01:03:56.447Z,1.65
2018-03-30T01:04:56.471Z,1.62
2018-03-30T01:05:56.501Z,1.60
2018-03-30T01:06:56.522Z,1.63
2018-03-30T01:07:56.551Z,1.62
2018-03-30T01:08:56.575Z,1.69
2018-03-30T01:09:56.601Z,1.65
2018-03-30T01:10:56.631Z,1.63
2018-03-30T01:11:56.652Z,1.70
2018-03-30T01:12:56.677Z,1.73
2018-03-30T01:13:56.703Z,1.68
2018-03-30T01:14:56.727Z,1.63
2018-03-30T01:15:56.757Z,1.59
2018-03-30T01:16:56.779Z,1.59
2018-03-30T01:17:56.804Z,1.54
2018-03-30T01:18:56.830Z,1.60
2018-03-30T01:19:56.857Z,1.50
2018-03-30T01:20:56.881Z,1.59
2018-03-30T01:21:56.906Z,1.45
2018-03-30T01:22:56.934Z,1.36
2018-03-30T01:23:56.958Z,1.40
2018-03-30T01:24:56.981Z,1.51
2018-03-30T01:25:57.017Z,1.54
2018-03-30T01:26:57.034Z,1.48
2018-03-30T01:27:57.060Z,1.50
2018-03-30T01:28:57.083Z,1.48
2018-03-30T01:29:57.110Z,1.48
2018-03-30T01:30:57.135Z,1.47
2018-03-30T01:31:57.161Z,1.50
2018-03-30T01:32:57.186Z,1.50
2018-03-30T01:33:57.211Z,1.48
2018-03-30T01:34:57.237Z,1.47
2018-03-30T01:35:57.262Z,1.44
2018-03-30T01:36:57.287Z,1.44
2018-03-30T01:37:57.313Z,1.42
2018-03-30T01:38:57.338Z,1.41
2018-03-30T01:39:57.364Z,1.50
2018-03-30T01:40:57.389Z,1.47
2018-03-30T01:41:57.414Z,1.47
2018-03-30T01:42:57.440Z,1.42
2018-03-30T01:43:57.464Z,1.45
2018-03-30T01:44:57.490Z,1.37
2018-03-30T01:45:57.516Z,1.34
2018-03-30T01:46:57.541Z,1.41
2018-03-30T01:47:57.565Z,1.37
2018-03-30T01:48:57.591Z,1.29
2018-03-30T01:49:57.620Z,1.36
2018-03-30T01:50:57.642Z,1.34
2018-03-30T01:51:57.668Z,1.32
2018-03-30T01:52:57.692Z,1.26
2018-03-30T01:53:57.715Z,1.29
2018-03-30T01:54:57.743Z,1.33
2018-03-30T01:55:57.771Z,1.41
2018-03-30T01:56:57.793Z,1.42
2018-03-30T01:57:57.818Z,1.51
2018-03-30T01:58:57.866Z,1.47
2018-03-30T01:59:57.871Z,1.48
2018-03-30T02:00:57.895Z,1.47
2018-03-30T02:01:57.921Z,1.45
2018-03-30T02:02:57.947Z,1.45
2018-03-30T02:03:57.970Z,1.45
2018-03-30T02:04:57.994Z,1.41
2018-03-30T02:05:58.020Z,1.44
2018-03-30T02:06:58.046Z,1.40
2018-03-30T02:07:58.072Z,1.42
2018-03-30T02:08:58.096Z,1.45
2018-03-30T02:09:58.122Z,1.41
2018-03-30T02:10:58.152Z,1.27
2018-03-30T02:11:58.176Z,1.34
2018-03-30T02:12:58.198Z,1.36
2018-03-30T02:13:58.227Z,1.41
2018-03-30T02:14:58.248Z,1.40
2018-03-30T02:15:58.307Z,1.36
2018-03-30T02:16:58.296Z,1.30
2018-03-30T02:17:58.328Z,1.32
2018-03-30T02:18:58.348Z,1.30
2018-03-30T02:19:58.382Z,1.36
2018-03-30T02:20:58.398Z,1.37
2018-03-30T02:21:58.424Z,1.24
2018-03-30T02:22:58.448Z,1.37
2018-03-30T02:23:58.474Z,1.30
2018-03-30T02:24:58.499Z,1.34
2018-03-30T02:25:58.524Z,1.36
2018-03-30T02:26:58.551Z,1.27
2018-03-30T02:27:58.575Z,1.41
2018-03-30T02:28:58.600Z,1.37
2018-03-30T02:29:58.626Z,1.36
2018-03-30T02:30:58.652Z,1.36
2018-03-30T02:31:58.679Z,1.34
2018-03-30T02:32:58.702Z,1.36
2018-03-30T02:33:58.725Z,1.34
2018-03-30T02:34:58.752Z,1.34
2018-03-30T02:35:58.780Z,1.37
2018-03-30T02:36:58.811Z,1.34
2018-03-30T02:37:58.829Z,1.32
2018-03-30T02:38:58.852Z,1.29
2018-03-30T02:39:58.879Z,1.32
2018-03-30T02:40:58.904Z,1.30
2018-03-30T02:41:58.928Z,1.20
2018-03-30T02:42:58.954Z,1.27
2018-03-30T02:43:58.980Z,1.34
2018-03-30T02:44:59.004Z,1.32
2018-03-30T02:45:59.030Z,1.29
2018-03-30T02:46:59.054Z,1.26
2018-03-30T02:47:59.083Z,1.29
2018-03-30T02:48:59.105Z,1.27
2018-03-30T02:49:59.130Z,1.26
2018-03-30T02:50:59.156Z,1.37
2018-03-30T02:51:59.181Z,1.24
2018-03-30T02:52:59.205Z,1.33
2018-03-30T02:53:59.231Z,1.41
2018-03-30T02:54:59.256Z,1.42
2018-03-30T02:55:59.281Z,1.40
2018-03-30T02:56:59.316Z,1.34
2018-03-30T02:57:59.333Z,1.34
2018-03-30T02:58:59.357Z,1.32
2018-03-30T02:59:59.383Z,1.37
2018-03-30T03:00:59.406Z,1.45
2018-03-30T03:01:59.434Z,1.47
2018-03-30T03:02:59.457Z,1.42
2018-03-30T03:03:59.483Z,1.41
2018-03-30T03:04:59.507Z,1.41
2018-03-30T03:05:59.549Z,1.40
2018-03-30T03:06:59.559Z,1.41
2018-03-30T03:07:59.583Z,1.42
2018-03-30T03:08:59.607Z,1.40
2018-03-30T03:09:59.633Z,1.30
2018-03-30T03:10:59.658Z,1.34
2018-03-30T03:11:59.684Z,1.36
2018-03-30T03:12:59.707Z,1.32
2018-03-30T03:13:59.732Z,1.18
2018-03-30T03:14:59.759Z,1.26
2018-03-30T03:15:59.790Z,1.30
2018-03-30T03:16:59.806Z,1.15
2018-03-30T03:17:59.837Z,1.29
2018-03-30T03:18:59.858Z,1.30
2018-03-30T03:19:59.885Z,1.36
2018-03-30T03:20:59.909Z,1.34
2018-03-30T03:21:59.934Z,1.29
2018-03-30T03:22:59.960Z,1.41
2018-03-30T03:23:59.990Z,1.42
2018-03-30T03:25:00.013Z,1.41
2018-03-30T03:26:00.037Z,1.47
2018-03-30T03:27:00.061Z,1.47
2018-03-30T03:28:00.086Z,1.41
2018-03-30T03:29:00.110Z,1.36
2018-03-30T03:30:00.146Z,1.33
2018-03-30T03:31:00.162Z,1.42
2018-03-30T03:32:00.188Z,1.30
2018-03-30T03:33:00.211Z,1.37
2018-03-30T03:34:00.237Z,1.45
2018-03-30T03:35:00.262Z,1.37
2018-03-30T03:36:00.287Z,1.37
2018-03-30T03:37:00.311Z,1.29
2018-03-30T03:38:00.338Z,1.36
2018-03-30T03:39:00.362Z,1.37
2018-03-30T03:40:00.388Z,1.42
2018-03-30T03:41:00.423Z,1.34
2018-03-30T03:42:00.443Z,1.37
2018-03-30T03:43:00.464Z,1.47
2018-03-30T03:44:00.495Z,1.41
2018-03-30T03:45:00.514Z,1.48
2018-03-30T03:46:00.541Z,1.37
2018-03-30T03:47:00.564Z,1.45
2018-03-30T03:48:00.594Z,1.54
2018-03-30T03:49:00.614Z,1.48
2018-03-30T03:50:00.639Z,1.63
2018-03-30T03:51:00.665Z,1.54
2018-03-30T03:52:00.696Z,1.34
2018-03-30T03:53:00.715Z,1.32
2018-03-30T03:54:00.739Z,1.34
2018-03-30T03:55:00.765Z,1.33
2018-03-30T03:56:00.790Z,1.24
2018-03-30T03:57:00.816Z,1.23
2018-03-30T03:58:00.842Z,1.29
2018-03-30T03:59:00.865Z,1.41
2018-03-30T04:00:00.891Z,1.32
2018-03-30T04:01:00.916Z,1.37
2018-03-30T04:02:00.947Z,1.42
2018-03-30T04:03:00.968Z,1.41
2018-03-30T04:04:00.991Z,1.41
2018-03-30T04:05:01.017Z,1.45
2018-03-30T04:06:01.041Z,1.33
2018-03-30T04:07:01.067Z,1.40
2018-03-30T04:08:01.094Z,1.40
2018-03-30T04:09:01.116Z,1.36
2018-03-30T04:10:01.142Z,1.37
2018-03-30T04:11:01.169Z,1.40
2018-03-30T04:12:01.193Z,1.34
2018-03-30T04:13:01.219Z,1.41
2018-03-30T04:14:01.242Z,1.33
2018-03-30T04:15:01.267Z,1.40
2018-03-30T04:16:01.293Z,1.41
2018-03-30T04:17:01.318Z,1.34
2018-03-30T04:18:01.343Z,1.36
2018-03-30T04:19:01.369Z,1.36
2018-03-30T04:20:01.394Z,1.30
2018-03-30T04:21:01.418Z,1.27
2018-03-30T04:22:01.442Z,1.18
2018-03-30T04:23:01.468Z,1.08
2018-03-30T04:24:01.492Z,0.97
2018-03-30T04:25:01.518Z,0.96
2018-03-30T04:26:01.544Z,1.00
2018-03-30T04:27:01.575Z,0.90
2018-03-30T04:28:01.596Z,0.94
2018-03-30T04:29:01.617Z,0.90
2018-03-30T04:30:01.643Z,0.94
2018-03-30T04:31:01.667Z,0.93
2018-03-30T04:32:01.694Z,0.97
2018-03-30T04:33:01.717Z,1.02
2018-03-30T04:34:01.743Z,1.00
2018-03-30T04:35:01.768Z,1.00
2018-03-30T04:36:01.793Z,0.98
2018-03-30T04:37:01.817Z,1.05
2018-03-30T04:38:01.842Z,1.09
2018-03-30T04:39:01.868Z,1.14
2018-03-30T04:40:01.892Z,1.06
2018-03-30T04:41:01.917Z,1.12
2018-03-30T04:42:01.943Z,1.12
2018-03-30T04:43:01.969Z,1.04
2018-03-30T04:44:01.993Z,1.24
2018-03-30T04:45:02.017Z,1.22
2018-03-30T04:46:02.042Z,1.34
2018-03-30T04:47:02.067Z,1.37
2018-03-30T04:48:02.092Z,1.42
2018-03-30T04:49:02.118Z,1.18
2018-03-30T04:50:02.156Z,1.36
2018-03-30T04:51:02.169Z,1.34
2018-03-30T04:52:02.192Z,1.36
2018-03-30T04:53:02.218Z,1.37
2018-03-30T04:54:02.241Z,1.36
2018-03-30T04:55:02.267Z,1.36
2018-03-30T04:56:02.292Z,1.37
2018-03-30T04:57:02.316Z,1.44
2018-03-30T04:58:02.342Z,1.41
2018-03-30T04:59:02.367Z,1.45
2018-03-30T05:00:02.393Z,1.37
2018-03-30T05:01:02.416Z,1.41
2018-03-30T05:02:02.445Z,1.30
2018-03-30T05:03:02.466Z,1.29
2018-03-30T05:04:02.491Z,1.18
2018-03-30T05:05:02.515Z,1.09
2018-03-30T05:06:02.541Z,1.05
2018-03-30T05:07:02.565Z,0.90
2018-03-30T05:08:02.591Z,0.84
2018-03-30T05:09:02.615Z,0.79
2018-03-30T05:10:02.638Z,0.78
2018-03-30T05:11:02.665Z,0.80
2018-03-30T05:12:02.689Z,0.94
2018-03-30T05:13:02.713Z,0.90
2018-03-30T05:14:02.739Z,0.88
2018-03-30T05:15:02.767Z,0.91
2018-03-30T05:16:02.788Z,1.04
2018-03-30T05:17:02.813Z,1.12
2018-03-30T05:18:02.842Z,1.12
2018-03-30T05:19:02.862Z,1.14
2018-03-30T05:20:02.888Z,1.29
2018-03-30T05:21:02.912Z,1.27
2018-03-30T05:22:02.990Z,1.30
2018-03-30T05:23:02.963Z,1.27
2018-03-30T05:24:02.988Z,1.09
2018-03-30T05:25:03.012Z,1.04
2018-03-30T05:26:03.036Z,0.96
2018-03-30T05:27:03.062Z,0.86
2018-03-30T05:28:03.092Z,0.86
2018-03-30T05:29:03.111Z,0.83
2018-03-30T05:30:03.137Z,0.88
2018-03-30T05:31:03.162Z,0.86
2018-03-30T05:32:03.187Z,0.96
2018-03-30T05:33:03.211Z,1.02
2018-03-30T05:34:03.236Z,1.12
2018-03-30T05:35:03.259Z,1.26
2018-03-30T05:36:03.286Z,1.24
2018-03-30T05:37:03.310Z,1.32
2018-03-30T05:38:03.335Z,1.44
2018-03-30T05:39:03.362Z,1.36
2018-03-30T05:40:03.390Z,1.33
2018-03-30T05:41:03.410Z,1.34
2018-03-30T05:42:03.436Z,1.45
2018-03-30T05:43:03.460Z,1.41
2018-03-30T05:44:03.486Z,1.42
2018-03-30T05:45:03.514Z,1.41
2018-03-30T05:46:03.536Z,1.42
2018-03-30T05:47:03.562Z,1.44
2018-03-30T05:48:03.586Z,1.44
2018-03-30T05:49:03.612Z,1.37
2018-03-30T05:50:03.639Z,1.68
2018-03-30T05:51:03.660Z,1.68
2018-03-30T05:52:03.685Z,1.69
2018-03-30T05:53:03.710Z,1.77
2018-03-30T05:54:03.737Z,1.68
2018-03-30T05:55:03.763Z,1.66
2018-03-30T05:56:03.787Z,1.66
2018-03-30T05:57:03.812Z,1.68
2018-03-30T05:58:03.837Z,1.68
2018-03-30T05:59:03.862Z,1.77
2018-03-30T06:00:03.888Z,1.77
2018-03-30T06:01:03.913Z,1.77
2018-03-30T06:02:03.938Z,1.84
2018-03-30T06:03:03.964Z,1.86
2018-03-30T06:04:03.989Z,1.86
2018-03-30T06:05:04.014Z,1.98
2018-03-30T06:06:04.043Z,1.99
2018-03-30T06:07:04.064Z,1.99
2018-03-30T06:08:04.129Z,2.10
2018-03-30T06:09:04.115Z,2.14
2018-03-30T06:10:04.145Z,2.16
2018-03-30T06:11:04.166Z,2.21
2018-03-30T06:12:04.191Z,2.27
2018-03-30T06:13:04.216Z,2.27
2018-03-30T06:14:04.242Z,2.28
2018-03-30T06:15:04.269Z,2.39
2018-03-30T06:16:04.299Z,2.41
2018-03-30T06:17:04.318Z,2.46
2018-03-30T06:18:04.345Z,2.43
2018-03-30T06:19:04.405Z,2.43
2018-03-30T06:21:04.421Z,2.45
2018-03-30T06:22:04.447Z,2.46
2018-03-30T06:23:04.474Z,2.46
2018-03-30T06:24:04.502Z,2.49
2018-03-30T06:25:04.524Z,2.45
2018-03-30T06:26:04.550Z,2.48
2018-03-30T06:27:04.576Z,2.52
2018-03-30T06:28:04.602Z,2.63
2018-03-30T06:29:04.628Z,2.56
2018-03-30T06:30:04.654Z,2.59
2018-03-30T06:31:04.680Z,2.74
2018-03-30T06:32:04.707Z,2.69
2018-03-30T06:33:04.732Z,2.78
2018-03-30T06:34:04.758Z,2.78
2018-03-30T06:35:04.787Z,2.79
2018-03-30T06:36:04.810Z,2.93
2018-03-30T06:37:04.841Z,2.90
2018-03-30T06:38:04.862Z,2.99
2018-03-30T06:39:04.889Z,3.02
2018-03-30T06:40:04.914Z,3.17
2018-03-30T06:41:04.941Z,3.20
2018-03-30T06:42:04.968Z,3.35
2018-03-30T06:43:04.994Z,3.50
2018-03-30T06:44:05.025Z,3.43
2018-03-30T06:45:05.047Z,3.51
2018-03-30T06:46:05.074Z,3.52
2018-03-30T06:47:05.105Z,3.66
2018-03-30T06:48:05.128Z,3.72
2018-03-30T06:49:05.154Z,3.70
2018-03-30T06:50:05.186Z,3.80
2018-03-30T06:51:05.208Z,3.91
2018-03-30T06:52:05.235Z,3.76
2018-03-30T06:53:05.260Z,3.80
2018-03-30T06:54:05.287Z,3.79
2018-03-30T06:55:05.314Z,3.88
2018-03-30T06:56:05.342Z,3.87
2018-03-30T06:57:05.368Z,3.91
2018-03-30T06:58:05.394Z,3.98
2018-03-30T06:59:05.422Z,4.00
2018-03-30T07:00:05.449Z,4.32
2018-03-30T07:01:05.480Z,4.29
2018-03-30T07:02:05.507Z,4.40
2018-03-30T07:03:05.529Z,4.47
2018-03-30T07:04:05.557Z,4.62
2018-03-30T07:05:05.584Z,4.72
2018-03-30T07:06:05.611Z,4.69
2018-03-30T07:07:05.686Z,4.82
2018-03-30T07:08:05.665Z,5.09
2018-03-30T07:09:05.695Z,5.09
2018-03-30T07:10:05.719Z,5.13
2018-03-30T07:11:05.747Z,5.15
2018-03-30T07:12:05.776Z,5.28
2018-03-30T07:13:05.800Z,5.45
2018-03-30T07:14:05.828Z,5.58
2018-03-30T07:15:05.857Z,5.51
2018-03-30T07:16:05.942Z,5.58
2018-03-30T07:17:05.912Z,5.79
2018-03-30T07:18:05.940Z,5.86
2018-03-30T07:19:05.967Z,6.04
2018-03-30T07:20:05.995Z,6.00
2018-03-30T07:21:06.022Z,6.09
2018-03-30T07:22:06.051Z,6.19
2018-03-30T07:23:06.078Z,6.40
2018-03-30T07:24:06.106Z,6.37
2018-03-30T07:25:06.134Z,6.43
2018-03-30T07:26:06.162Z,6.56
2018-03-30T07:27:06.192Z,6.73
2018-03-30T07:28:06.219Z,6.70
2018-03-30T07:29:06.248Z,6.77
2018-03-30T07:30:06.277Z,6.87
2018-03-30T07:31:06.304Z,7.05
2018-03-30T07:32:06.334Z,7.27
2018-03-30T07:33:06.362Z,7.39
2018-03-30T07:34:06.442Z,7.39
2018-03-30T07:35:06.420Z,7.50
2018-03-30T07:36:06.448Z,7.48
2018-03-30T07:37:06.509Z,7.50
2018-03-30T07:38:06.508Z,7.68
2018-03-30T07:39:06.537Z,7.72
2018-03-30T07:40:06.565Z,7.87
2018-03-30T07:41:06.593Z,7.87
2018-03-30T07:42:06.623Z,8.00
2018-03-30T07:43:06.653Z,8.10
2018-03-30T07:44:06.682Z,8.20
2018-03-30T07:45:06.719Z,8.30
2018-03-30T07:46:06.742Z,8.34
2018-03-30T07:47:06.770Z,8.37
2018-03-30T07:48:06.801Z,8.50
2018-03-30T07:49:06.829Z,8.62
2018-03-30T07:50:06.860Z,8.76
2018-03-30T07:51:06.891Z,8.77
2018-03-30T07:52:06.966Z,8.94
2018-03-30T07:53:06.951Z,8.98
2018-03-30T07:54:06.982Z,9.18
2018-03-30T07:55:07.012Z,9.20
2018-03-30T07:56:07.042Z,9.28
2018-03-30T07:57:07.072Z,9.43
2018-03-30T07:58:07.104Z,9.39
2018-03-30T07:59:07.134Z,9.48
2018-03-30T08:00:07.166Z,9.56
2018-03-30T08:01:07.196Z,9.66
2018-03-30T08:02:07.226Z,9.90
2018-03-30T08:03:07.259Z,9.94
2018-03-30T08:04:07.289Z,10.18
2018-03-30T08:05:07.320Z,10.36
2018-03-30T08:06:07.353Z,10.42
2018-03-30T08:07:07.384Z,10.56
2018-03-30T08:08:07.416Z,10.60
2018-03-30T08:09:07.504Z,10.71
2018-03-30T08:10:07.477Z,10.81
2018-03-30T08:11:07.509Z,10.79
2018-03-30T08:12:07.542Z,10.96
2018-03-30T08:13:07.573Z,10.97
2018-03-30T08:14:07.605Z,11.11
2018-03-30T08:15:07.636Z,11.15
2018-03-30T08:16:07.669Z,11.22
2018-03-30T08:17:07.701Z,11.32
2018-03-30T08:18:07.734Z,11.36
2018-03-30T08:19:07.770Z,11.42
2018-03-30T08:20:07.798Z,11.47
2018-03-30T08:21:07.832Z,11.51
2018-03-30T08:22:07.860Z,11.62
2018-03-30T08:23:07.895Z,11.75
2018-03-30T08:24:07.928Z,11.94
2018-03-30T08:25:07.960Z,12.01
2018-03-30T08:26:07.993Z,12.02
2018-03-30T08:27:08.026Z,12.02
2018-03-30T08:28:08.060Z,12.12
2018-03-30T08:29:08.092Z,12.27
2018-03-30T08:30:08.125Z,12.37
2018-03-30T08:31:08.160Z,12.10
2018-03-30T08:32:08.193Z,12.23
2018-03-30T08:33:08.226Z,12.39
2018-03-30T08:34:08.265Z,12.52
2018-03-30T08:35:08.293Z,12.89
2018-03-30T08:36:08.328Z,12.83
2018-03-30T08:37:08.360Z,12.70
2018-03-30T08:38:08.396Z,12.82
2018-03-30T08:39:08.430Z,12.92
2018-03-30T08:40:08.463Z,12.97
2018-03-30T08:41:08.498Z,13.28
2018-03-30T08:42:08.533Z,13.51
2018-03-30T08:43:08.568Z,13.14
2018-03-30T08:44:08.602Z,13.07
2018-03-30T08:45:08.635Z,12.95
2018-03-30T08:46:08.671Z,12.90
2018-03-30T08:47:08.706Z,12.79
2018-03-30T08:48:08.741Z,12.82
2018-03-30T08:49:08.775Z,12.85
2018-03-30T08:50:08.811Z,12.87
2018-03-30T08:51:08.845Z,12.82
2018-03-30T08:52:08.881Z,12.86
2018-03-30T08:53:08.914Z,12.82
2018-03-30T08:54:08.954Z,12.60
2018-03-30T08:55:08.983Z,12.78
2018-03-30T08:56:09.020Z,12.72
2018-03-30T08:57:09.054Z,12.78
2018-03-30T08:58:09.089Z,12.71
2018-03-30T08:59:09.125Z,12.56
2018-03-30T09:00:09.160Z,12.41
2018-03-30T09:01:09.194Z,12.37
2018-03-30T09:02:09.280Z,12.59
2018-03-30T09:03:09.265Z,12.68
2018-03-30T09:04:09.299Z,12.96
2018-03-30T09:05:09.334Z,14.00
2018-03-30T09:06:09.368Z,15.13
2018-03-30T09:07:09.405Z,15.90
2018-03-30T09:08:09.440Z,16.67
2018-03-30T09:09:09.476Z,17.46
2018-03-30T09:10:09.512Z,18.47
2018-03-30T09:11:09.550Z,19.31
2018-03-30T09:12:09.586Z,19.58
2018-03-30T09:13:09.623Z,20.20
2018-03-30T09:14:09.666Z,21.34
2018-03-30T09:15:09.702Z,20.95
2018-03-30T09:16:09.738Z,21.61
2018-03-30T09:17:09.777Z,21.40
2018-03-30T09:18:09.817Z,21.01
2018-03-30T09:19:09.856Z,21.14
2018-03-30T09:20:09.896Z,21.58
2018-03-30T09:21:09.937Z,21.83
2018-03-30T09:22:09.978Z,22.72
2018-03-30T09:23:10.016Z,22.62
2018-03-30T09:24:10.061Z,23.16
2018-03-30T09:25:10.099Z,22.68
2018-03-30T09:26:10.142Z,21.24
2018-03-30T09:27:10.183Z,20.89
2018-03-30T09:28:10.225Z,20.58
2018-03-30T09:29:10.266Z,20.10
2018-03-30T09:30:10.309Z,20.79
2018-03-30T09:31:10.351Z,20.08
2018-03-30T09:32:10.396Z,19.68
2018-03-30T09:33:10.438Z,18.25
2018-03-30T09:34:10.480Z,18.26
2018-03-30T09:35:10.523Z,19.10
2018-03-30T09:36:10.566Z,18.85
2018-03-30T09:37:10.608Z,19.04
2018-03-30T09:38:10.652Z,20.05
2018-03-30T09:39:10.694Z,20.77
2018-03-30T09:40:10.738Z,21.44
2018-03-30T09:41:10.779Z,22.25
2018-03-30T09:42:10.823Z,21.96
2018-03-30T09:43:10.866Z,21.67
2018-03-30T09:44:10.910Z,22.49
2018-03-30T09:45:10.952Z,23.12
2018-03-30T09:46:11.000Z,23.85
2018-03-30T09:47:11.044Z,23.22
2018-03-30T09:48:11.085Z,23.07
2018-03-30T09:49:11.131Z,22.97
2018-03-30T09:50:11.174Z,23.33
2018-03-30T09:51:11.221Z,22.92
2018-03-30T09:52:11.267Z,22.45
2018-03-30T09:53:11.312Z,22.45
2018-03-30T09:54:11.357Z,21.80
2018-03-30T09:55:11.403Z,20.77
2018-03-30T09:56:11.450Z,20.18
2018-03-30T09:57:11.495Z,19.68
2018-03-30T09:58:11.540Z,19.31
2018-03-30T09:59:11.586Z,18.84
2018-03-30T10:00:11.632Z,18.45
2018-03-30T10:01:11.677Z,18.07
2018-03-30T10:02:11.720Z,17.48
2018-03-30T10:03:11.766Z,17.37
2018-03-30T10:04:11.811Z,17.07
2018-03-30T10:05:11.855Z,16.98
2018-03-30T10:06:11.899Z,16.82
2018-03-30T10:07:11.942Z,16.82
2018-03-30T10:08:11.993Z,15.96
2018-03-30T10:09:12.030Z,16.11
2018-03-30T10:10:12.071Z,16.12
2018-03-30T10:11:12.114Z,15.78
2018-03-30T10:12:12.157Z,15.57
2018-03-30T10:13:12.197Z,15.36
2018-03-30T10:14:12.239Z,15.21
2018-03-30T10:15:12.281Z,14.99
2018-03-30T10:16:12.321Z,14.89
2018-03-30T10:17:12.361Z,14.70
2018-03-30T10:18:12.402Z,14.46
2018-03-30T10:19:12.442Z,14.28
2018-03-30T10:20:12.483Z,14.17
2018-03-30T10:21:12.519Z,13.85
2018-03-30T10:22:12.560Z,13.84
2018-03-30T10:23:12.604Z,13.62
2018-03-30T10:24:12.638Z,13.62
2018-03-30T10:25:12.691Z,13.67
2018-03-30T10:26:12.714Z,13.63
2018-03-30T10:27:12.752Z,13.46
2018-03-30T10:28:12.791Z,13.42
2018-03-30T10:29:12.832Z,13.38
2018-03-30T10:30:12.866Z,13.41
2018-03-30T10:31:12.902Z,13.33
2018-03-30T10:32:12.941Z,13.19
2018-03-30T10:33:12.977Z,13.15
2018-03-30T10:34:13.014Z,13.03
2018-03-30T10:35:13.049Z,13.23
2018-03-30T10:36:13.087Z,13.05
2018-03-30T10:37:13.124Z,13.04
2018-03-30T10:38:13.159Z,13.28
2018-03-30T10:39:13.195Z,12.89
2018-03-30T10:40:13.230Z,12.92
2018-03-30T10:41:13.268Z,12.90
2018-03-30T10:42:13.302Z,12.96
2018-03-30T10:43:13.336Z,13.12
2018-03-30T10:44:13.372Z,13.08
2018-03-30T10:45:13.409Z,13.01
2018-03-30T10:46:13.443Z,12.96
2018-03-30T10:47:13.477Z,12.90
2018-03-30T10:48:13.514Z,12.79
2018-03-30T10:49:13.548Z,12.74
2018-03-30T10:50:13.584Z,12.62
2018-03-30T10:51:13.621Z,12.75
2018-03-30T10:52:13.653Z,12.60
2018-03-30T10:53:13.695Z,12.57
2018-03-30T10:54:13.721Z,12.64
2018-03-30T10:55:13.761Z,12.56
2018-03-30T10:56:13.792Z,12.52
2018-03-30T10:57:13.826Z,12.52
2018-03-30T10:58:13.859Z,12.46
2018-03-30T10:59:13.896Z,12.53
2018-03-30T11:00:13.929Z,12.60
2018-03-30T11:01:13.964Z,12.34
2018-03-30T11:02:13.997Z,12.32
2018-03-30T11:03:14.032Z,12.28
2018-03-30T11:04:14.066Z,12.21
2018-03-30T11:05:14.153Z,12.24
2018-03-30T11:06:14.134Z,12.27
2018-03-30T11:07:14.167Z,12.32
2018-03-30T11:08:14.200Z,12.31
2018-03-30T11:09:14.235Z,12.49
2018-03-30T11:10:14.269Z,12.50
2018-03-30T11:11:14.302Z,12.50
2018-03-30T11:12:14.336Z,12.37
2018-03-30T11:13:14.369Z,12.28
2018-03-30T11:14:14.403Z,12.38
2018-03-30T11:15:14.440Z,12.28
2018-03-30T11:16:14.471Z,12.32
2018-03-30T11:17:14.503Z,12.39
2018-03-30T11:18:14.537Z,12.56
2018-03-30T11:19:14.571Z,12.75
2018-03-30T11:20:14.605Z,12.57
2018-03-30T11:21:14.637Z,12.49
2018-03-30T11:22:14.672Z,12.49
2018-03-30T11:23:14.709Z,12.64
2018-03-30T11:24:14.740Z,12.62
2018-03-30T11:25:14.772Z,12.59
2018-03-30T11:26:14.805Z,12.72
2018-03-30T11:27:14.840Z,12.83
2018-03-30T11:28:14.873Z,12.95
2018-03-30T11:29:14.906Z,12.95
2018-03-30T11:30:14.941Z,13.01
2018-03-30T11:31:14.974Z,13.10
2018-03-30T11:32:15.014Z,13.11
2018-03-30T11:33:15.043Z,13.04
2018-03-30T11:34:15.076Z,13.01
2018-03-30T11:35:15.110Z,13.10
2018-03-30T11:36:15.143Z,13.15
2018-03-30T11:37:15.178Z,13.33
2018-03-30T11:38:15.215Z,13.42
2018-03-30T11:39:15.247Z,13.44
2018-03-30T11:40:15.281Z,13.52
2018-03-30T11:41:15.317Z,13.55
2018-03-30T11:42:15.348Z,13.54
2018-03-30T11:43:15.382Z,13.87
2018-03-30T11:44:15.418Z,13.85
2018-03-30T11:45:15.452Z,14.20
2018-03-30T11:46:15.487Z,14.27
2018-03-30T11:47:15.522Z,14.46
2018-03-30T11:48:15.557Z,13.95
2018-03-30T11:49:15.591Z,14.57
2018-03-30T11:50:15.628Z,15.84
2018-03-30T11:51:15.663Z,16.68
2018-03-30T11:52:15.698Z,16.79
2018-03-30T11:53:15.733Z,17.06
2018-03-30T11:54:15.769Z,16.97
2018-03-30T11:55:15.806Z,17.06
2018-03-30T11:56:15.844Z,17.38
2018-03-30T11:57:15.879Z,18.11
2018-03-30T11:58:15.917Z,18.10
2018-03-30T11:59:15.955Z,19.06
2018-03-30T12:00:15.992Z,19.86
2018-03-30T12:01:16.030Z,19.54
2018-03-30T12:02:16.067Z,19.31
2018-03-30T12:03:16.157Z,19.88
2018-03-30T12:04:16.147Z,19.39
2018-03-30T12:05:16.186Z,19.33
2018-03-30T12:06:16.225Z,18.42
2018-03-30T12:07:16.266Z,19.62
2018-03-30T12:08:16.306Z,20.94
2018-03-30T12:09:16.354Z,22.10
2018-03-30T12:10:16.388Z,22.58
2018-03-30T12:11:16.431Z,24.15
2018-03-30T12:12:16.473Z,24.95
2018-03-30T12:13:16.515Z,25.57
2018-03-30T12:14:16.559Z,26.37
2018-03-30T12:15:16.602Z,25.88
2018-03-30T12:16:16.647Z,26.63
2018-03-30T12:17:16.691Z,26.21
2018-03-30T12:18:16.744Z,26.73
2018-03-30T12:19:16.784Z,24.80
2018-03-30T12:20:16.841Z,25.92
2018-03-30T12:21:16.877Z,25.79
2018-03-30T12:22:16.925Z,25.27
2018-03-30T12:23:16.972Z,23.38
2018-03-30T12:24:17.019Z,22.43
2018-03-30T12:25:17.068Z,22.22
2018-03-30T12:26:17.118Z,22.17
2018-03-30T12:27:17.164Z,19.73
2018-03-30T12:28:17.212Z,18.94
2018-03-30T12:29:17.258Z,19.02
2018-03-30T12:30:17.307Z,20.54
2018-03-30T12:31:17.353Z,20.61
2018-03-30T12:32:17.401Z,21.17
2018-03-30T12:33:17.446Z,21.52
2018-03-30T12:34:17.495Z,21.96
2018-03-30T12:35:17.541Z,23.38
2018-03-30T12:36:17.589Z,24.05
2018-03-30T12:37:17.634Z,26.26
2018-03-30T12:38:17.681Z,26.45
2018-03-30T12:39:17.729Z,27.21
2018-03-30T12:40:17.777Z,26.30
2018-03-30T12:41:17.825Z,26.05
2018-03-30T12:42:17.871Z,25.03
2018-03-30T12:43:17.917Z,24.49
2018-03-30T12:44:17.966Z,24.24
2018-03-30T12:45:18.018Z,23.83
2018-03-30T12:46:18.081Z,22.18
2018-03-30T12:47:18.109Z,22.09
2018-03-30T12:48:18.158Z,21.98
2018-03-30T12:49:18.203Z,20.99
2018-03-30T12:50:18.255Z,20.61
2018-03-30T12:51:18.299Z,20.98
2018-03-30T12:52:18.346Z,20.84
2018-03-30T12:53:18.390Z,21.32
2018-03-30T12:54:18.438Z,21.98
2018-03-30T12:55:18.487Z,22.27
2018-03-30T12:56:18.529Z,22.58
2018-03-30T12:57:18.573Z,22.62
2018-03-30T12:58:18.621Z,22.70
2018-03-30T12:59:18.667Z,22.90
2018-03-30T13:00:18.712Z,22.83
2018-03-30T13:01:18.758Z,23.13
2018-03-30T13:02:18.803Z,22.98
2018-03-30T13:03:18.851Z,22.72
2018-03-30T13:04:18.890Z,22.18
2018-03-30T13:05:18.934Z,22.02
2018-03-30T13:06:18.978Z,21.88
2018-03-30T13:07:19.023Z,21.16
2018-03-30T13:08:19.067Z,20.17
2018-03-30T13:09:19.110Z,19.65
2018-03-30T13:10:19.155Z,19.41